FW9380 Weather Reports


time (UTC)temp
C
wind
direction
speed
KPH
gust
KPH
rain 1hr
cm
rain 24hr
cm
rain mn
cm
humidity
%
barometer
mb
20211017154006 18 30 3.2 4.8 0.00 0.00 0.00 49 1022.7
20211017153503 18 139 8.0 11.3 0.00 0.00 0.00 48 1022.7
20211017153001 18 38 6.4 9.7 0.00 0.00 0.00 55 1022.5
20211017152500 18 331 3.2 3.2 0.00 0.00 0.00 52 1022.6
20211017152000 17 71 8.0 17.7 0.00 0.00 0.00 54 1022.5
20211017151457 17 64 8.0 14.5 0.00 0.00 0.00 51 1022.4
20211017150954 17 55 4.8 4.8 0.00 0.00 0.00 53 1022.4
20211017150454 17 232 3.2 3.2 0.00 0.00 0.00 55 1022.6
20211017145953 17 91 4.8 9.7 0.00 0.00 0.00 53 1022.8
20211017145451 17 324 9.7 16.1 0.00 0.00 0.00 52 1022.7
20211017144949 17 75 1.6 1.6 0.00 0.00 0.00 56 1022.6
20211017144447 17 358 9.7 17.7 0.00 0.00 0.00 55 1022.7
20211017143946 17 262 6.4 9.7 0.00 0.00 0.00 54 1022.7
20211017143443 17 92 8.0 12.9 0.00 0.00 0.00 54 1022.6
20211017142942 17 71 4.8 8.0 0.00 0.00 0.00 55 1022.8
20211017142441 17 52 8.0 12.9 0.00 0.00 0.00 57 1022.9
20211017141939 17 183 3.2 8.0 0.00 0.00 0.00 59 1022.7
20211017141438 16 113 6.4 12.9 0.00 0.00 0.00 58 1022.9
20211017140937 16 103 4.8 4.8 0.00 0.00 0.00 60 1022.6
20211017140431 16 66 3.2 8.0 0.00 0.00 0.00 63 1022.9
20211017135930 16 72 6.4 9.7 0.00 0.00 0.00 63 1022.8
20211017135429 16 79 3.2 3.2 0.00 0.00 0.00 63 1022.7
20211017134928 15 65 4.8 8.0 0.00 0.00 0.00 64 1022.6
20211017134421 15 87 1.6 1.6 0.00 0.00 0.00 65 1022.5
20211017133918 15 99 3.2 8.0 0.00 0.00 0.00 63 1022.6
20211017133417 15 325 3.2 8.0 0.00 0.00 0.00 64 1022.6
20211017132917 15 130 3.2 4.8 0.00 0.00 0.00 64 1022.8
20211017132417 15 9 4.8 8.0 0.00 0.00 0.00 64 1022.5
20211017131914 15 110 3.2 4.8 0.00 0.00 0.00 64 1022.7
20211017131411 15 89 8.0 11.3 0.00 0.00 0.00 65 1022.6
20211017130911 15 59 8.0 14.5 0.00 0.00 0.00 67 1022.6
20211017130407 15 69 3.2 4.8 0.00 0.00 0.00 69 1022.4
20211017125903 15 75 1.6 1.6 0.00 0.00 0.00 70 1022.2
20211017125403 15 58 0.0 0.0 0.00 0.00 0.00 69 1022.1
20211017124859 14 147 1.6 1.6 0.00 0.00 0.00 70 1022.2
20211017124358 14 111 8.0 11.3 0.00 0.00 0.00 70 1022.2
20211017123856 14 185 3.2 3.2 0.00 0.00 0.00 69 1022.2
20211017123352 14 90 1.6 3.2 0.00 0.00 0.00 68 1022.2
20211017122851 14 344 3.2 4.8 0.00 0.00 0.00 69 1021.9
20211017122350 14 300 1.6 1.6 0.00 0.00 0.00 70 1022.2
20211017121848 15 93 1.6 1.6 0.00 0.00 0.00 72 1021.8
20211017121348 15 270 6.4 9.7 0.00 0.00 0.00 71 1021.9
20211017120847 15 126 1.6 3.2 0.00 0.00 0.00 68 1021.9
20211017120346 15 226 1.6 3.2 0.00 0.00 0.00 67 1021.9
20211017115844 15 101 1.6 3.2 0.00 0.00 0.00 67 1021.7
20211017115343 15 109 1.6 1.6 0.00 0.00 0.00 69 1021.6
20211017114841 15 226 3.2 3.2 0.00 0.00 0.00 66 1021.7
20211017114339 15 51 9.7 14.5 0.00 0.00 0.00 68 1021.5
20211017113838 15 201 1.6 1.6 0.00 0.00 0.00 68 1021.6
20211017113337 15 195 4.8 4.8 0.00 0.00 0.00 68 1021.4
20211017112835 15 92 9.7 12.9 0.00 0.00 0.00 66 1021.3
20211017112333 15 37 8.0 12.9 0.00 0.00 0.00 64 1021.3
20211017111832 15 149 4.8 4.8 0.00 0.00 0.00 68 1021.5
20211017111330 15 113 8.0 11.3 0.00 0.00 0.00 67 1021.4
20211017110829 15 170 4.8 8.0 0.00 0.00 0.00 64 1021.2
20211017110325 15 34 4.8 9.7 0.00 0.00 0.00 64 1021.2
20211017105824 15 42 11.3 12.9 0.00 0.00 0.00 66 1021.2
20211017105323 15 70 11.3 14.5 0.00 0.00 0.00 65 1021.1
20211017104821 15 87 1.6 3.2 0.00 0.00 0.00 69 1021.3
20211017104320 15 81 6.4 9.7 0.00 0.00 0.00 67 1021.0
20211017103820 15 215 3.2 3.2 0.00 0.00 0.00 66 1021.0
20211017103319 16 181 4.8 8.0 0.00 0.00 0.00 65 1020.7
20211017102817 15 80 11.3 20.9 0.00 0.00 0.00 65 1021.0
20211017102317 15 85 3.2 3.2 0.00 0.00 0.00 66 1020.7
20211017101815 16 86 8.0 14.5 0.00 0.00 0.00 66 1020.6
20211017101313 16 140 3.2 3.2 0.00 0.00 0.00 66 1020.6
20211017100812 16 248 3.2 3.2 0.00 0.00 0.00 67 1020.5
20211017100310 16 99 3.2 3.2 0.00 0.00 0.00 66 1020.6
20211017095808 16 141 1.6 1.6 0.00 0.00 0.00 68 1020.5
20211017095308 15 36 4.8 8.0 0.00 0.00 0.00 65 1020.5
20211017094805 15 91 1.6 3.2 0.00 0.00 0.00 68 1020.5
20211017094301 15 35 1.6 3.2 0.00 0.00 0.00 66 1020.6
20211017093800 15 116 3.2 3.2 0.00 0.00 0.00 67 1020.5
20211017093258 16 172 4.8 4.8 0.00 0.00 0.00 66 1020.7
20211017092758 16 100 1.6 1.6 0.00 0.00 0.00 66 1020.7
20211017092258 16 87 4.8 8.0 0.00 0.00 0.00 66 1020.5
20211017091756 16 78 3.2 3.2 0.00 0.00 0.00 66 1020.5
20211017091252 16 349 12.9 17.7 0.00 0.00 0.00 65 1020.6
20211017090751 16 52 4.8 8.0 0.00 0.00 0.00 67 1020.6
20211017090247 16 180 4.8 4.8 0.00 0.00 0.00 68 1020.7
20211017085746 16 217 6.4 9.7 0.00 0.00 0.00 67 1020.5
20211017085245 16 95 3.2 3.2 0.00 0.00 0.00 67 1020.5
20211017084744 16 213 0.0 1.6 0.00 0.00 0.00 68 1020.4
20211017084243 16 112 3.2 4.8 0.00 0.00 0.00 67 1020.4
20211017083741 16 27 8.0 11.3 0.00 0.00 0.00 67 1020.3
20211017083240 16 119 4.8 8.0 0.00 0.00 0.00 65 1020.3
20211017082738 16 99 3.2 3.2 0.00 0.00 0.00 64 1020.4
20211017082236 16 62 8.0 11.3 0.00 0.00 0.00 66 1020.1
20211017081735 16 81 3.2 4.8 0.00 0.00 0.00 67 1020.1
20211017081233 16 109 4.8 4.8 0.00 0.00 0.00 67 1020.1
20211017080731 16 13 6.4 12.9 0.00 0.00 0.00 65 1020.3
20211017080230 16 202 8.0 12.9 0.00 0.00 0.00 66 1020.1
20211017075730 16 54 3.2 3.2 0.00 0.00 0.00 65 1020.1
20211017075229 16 48 8.0 11.3 0.00 0.00 0.00 64 1020.1
20211017074725 16 109 11.3 16.1 0.00 0.00 0.00 65 1020.2
20211017074223 16 161 1.6 3.2 0.00 0.00 0.00 67 1020.0
20211017073722 16 77 3.2 3.2 0.00 0.00 0.00 68 1020.2
20211017073222 16 74 11.3 11.3 0.00 0.00 0.00 65 1020.0
20211017072721 16 336 4.8 4.8 0.00 0.00 0.00 66 1020.1
20211017072219 16 323 4.8 4.8 0.00 0.00 0.00 66 1020.1
20211017071718 16 104 8.0 11.3 0.00 0.00 0.00 65 1020.2
20211017071217 16 82 3.2 4.8 0.00 0.00 0.00 64 1020.1
20211017070717 16 89 3.2 4.8 0.00 0.00 0.00 66 1020.0
20211017070214 16 230 1.6 3.2 0.00 0.00 0.00 66 1020.1
20211017065712 16 58 9.7 12.9 0.00 0.00 0.00 63 1020.3
20211017065211 16 294 4.8 9.7 0.00 0.00 0.00 63 1020.2
20211017064710 16 62 3.2 3.2 0.00 0.00 0.00 62 1020.2
20211017064208 16 120 1.6 3.2 0.00 0.00 0.00 64 1020.1
20211017063709 16 168 4.8 4.8 0.00 0.00 0.00 64 1020.2
20211017063207 16 194 3.2 3.2 0.00 0.00 0.00 64 1020.1
20211017062701 16 100 0.0 1.6 0.00 0.00 0.00 64 1020.4
20211017062201 16 71 8.0 9.7 0.00 0.00 0.00 63 1020.2
20211017061659 16 161 1.6 1.6 0.00 0.00 0.00 66 1020.2
20211017061159 16 104 8.0 12.9 0.00 0.00 0.00 66 1020.2
20211017060658 16 115 8.0 11.3 0.00 0.00 0.00 64 1020.5
20211017060157 16 168 3.2 3.2 0.00 0.00 0.00 66 1020.4
20211017055653 16 75 0.0 1.6 0.00 0.00 0.00 66 1020.5
20211017055153 16 203 4.8 4.8 0.00 0.00 0.00 65 1020.4
20211017054645 16 190 3.2 4.8 0.00 0.00 0.00 67 1020.6
20211017054146 16 12 6.4 8.0 0.00 0.00 0.00 64 1020.5
20211017053641 16 101 1.6 1.6 0.00 0.00 0.00 66 1020.5
20211017053141 16 168 6.4 9.7 0.00 0.00 0.00 65 1020.7
20211017052641 16 110 1.6 1.6 0.00 0.00 0.00 68 1020.5
20211017052141 16 55 6.4 8.0 0.00 0.00 0.00 68 1020.6
20211017051641 16 166 3.2 4.8 0.00 0.00 0.00 68 1020.7
20211017051139 16 229 3.2 3.2 0.00 0.00 0.00 68 1020.9
20211017050637 16 96 3.2 4.8 0.00 0.00 0.00 67 1020.7
20211017050135 16 284 1.6 3.2 0.00 0.00 0.00 67 1020.7
20211017045635 16 27 4.8 8.0 0.00 0.00 0.00 66 1020.6
20211017045133 16 117 1.6 1.6 0.00 0.00 0.00 66 1020.6
20211017044631 16 90 3.2 3.2 0.00 0.00 0.00 67 1020.6
20211017044130 17 214 0.0 1.6 0.00 0.00 0.00 65 1020.6
20211017043629 16 71 4.8 8.0 0.00 0.00 0.00 64 1020.7
20211017043128 16 209 1.6 3.2 0.00 0.00 0.00 64 1020.6
20211017042619 17 122 4.8 9.7 0.00 0.00 0.00 65 1020.5
20211017042117 17 166 1.6 3.2 0.00 0.00 0.00 64 1020.7
20211017041617 17 257 3.2 4.8 0.00 0.00 0.00 65 1020.7
20211017041116 17 201 0.0 1.6 0.00 0.00 0.00 65 1020.7
20211017040615 17 99 3.2 4.8 0.00 0.00 0.00 63 1020.7
20211017040115 17 102 3.2 3.2 0.00 0.00 0.00 64 1020.7
20211017035613 17 351 4.8 8.0 0.00 0.00 0.00 64 1020.6
20211017035111 17 348 1.6 3.2 0.00 0.00 0.00 66 1020.7
20211017034609 17 296 8.0 9.7 0.00 0.00 0.00 65 1020.6
20211017034110 17 6 1.6 8.0 0.00 0.00 0.00 65 1020.6
20211017033608 17 124 1.6 1.6 0.00 0.00 0.00 64 1020.6
20211017033107 17 291 8.0 12.9 0.00 0.00 0.00 62 1020.6
20211017032603 17 81 4.8 4.8 0.00 0.00 0.00 65 1020.5
20211017032059 17 115 4.8 4.8 0.00 0.00 0.00 66 1020.4
20211017031559 17 63 1.6 3.2 0.00 0.00 0.00 64 1020.6
20211017031059 17 291 4.8 4.8 0.00 0.00 0.00 65 1020.4
20211017030558 17 348 1.6 1.6 0.00 0.00 0.00 64 1020.6
20211017030055 17 39 4.8 8.0 0.00 0.00 0.00 64 1020.5
20211017025555 17 344 6.4 11.3 0.00 0.00 0.00 63 1020.5
20211017025053 18 149 3.2 3.2 0.00 0.00 0.00 64 1020.3
20211017024552 18 33 4.8 4.8 0.00 0.00 0.00 63 1020.2
20211017024052 18 179 4.8 4.8 0.00 0.00 0.00 63 1020.1
20211017023550 18 109 1.6 1.6 0.00 0.00 0.00 62 1020.1
20211017023049 18 109 0.0 1.6 0.00 0.00 0.00 62 1020.1
20211017022548 18 50 4.8 9.7 0.00 0.00 0.00 62 1020.0
20211017022045 18 74 3.2 4.8 0.00 0.00 0.00 62 1020.0
20211017021543 18 114 1.6 1.6 0.00 0.00 0.00 61 1019.8
20211017021039 18 165 8.0 9.7 0.00 0.00 0.00 62 1019.9
20211017020538 18 240 3.2 3.2 0.00 0.00 0.00 62 1020.0
20211017020037 18 88 3.2 4.8 0.00 0.00 0.00 62 1019.7
20211017015534 18 23 3.2 3.2 0.00 0.00 0.00 64 1019.7
20211017015032 18 295 4.8 4.8 0.00 0.00 0.00 61 1019.5
20211017014531 18 325 3.2 3.2 0.00 0.00 0.00 61 1019.4
20211017014029 18 232 3.2 8.0 0.00 0.00 0.00 60 1019.3
20211017013523 18 204 1.6 3.2 0.00 0.00 0.00 61 1019.4
20211017013022 19 91 1.6 4.8 0.00 0.00 0.00 62 1019.4
20211017012520 19 169 1.6 1.6 0.00 0.00 0.00 60 1019.0
20211017012018 19 9 3.2 3.2 0.00 0.00 0.00 57 1019.2
20211017011516 19 140 1.6 1.6 0.00 0.00 0.00 59 1019.0
20211017011015 19 136 1.6 3.2 0.00 0.00 0.00 60 1018.9
20211017010514 19 78 1.6 1.6 0.00 0.00 0.00 59 1019.1
20211017010014 19 102 3.2 3.2 0.00 0.00 0.00 60 1019.1
20211017005512 20 120 4.8 4.8 0.00 0.00 0.00 59 1019.0
20211017005009 20 200 1.6 1.6 0.00 0.00 0.00 60 1018.8
20211017004504 20 147 3.2 4.8 0.00 0.00 0.00 61 1018.6
20211017004004 20 106 3.2 3.2 0.00 0.00 0.00 58 1018.6
20211017003503 20 33 9.7 16.1 0.00 0.00 0.00 60 1018.5
20211017002952 20 174 1.6 3.2 0.00 0.00 0.00 61 1018.6
20211017002452 20 97 1.6 3.2 0.00 0.00 0.00 59 1018.4
20211017001951 20 111 1.6 4.8 0.00 0.00 0.00 62 1018.4
20211017001451 20 83 1.6 3.2 0.00 0.00 0.00 61 1018.4
20211017000949 20 181 4.8 8.0 0.00 0.00 0.00 62 1018.1
20211017000448 20 183 1.6 1.6 0.00 0.00 0.00 61 1018.0
20211016235944 20 212 3.2 3.2 0.00 0.00 0.00 59 1017.9
20211016235443 20 170 1.6 3.2 0.00 0.00 0.00 61 1017.7
20211016234943 21 102 4.8 4.8 0.00 0.00 0.00 60 1017.7
20211016234442 21 215 3.2 4.8 0.00 0.00 0.00 59 1017.7
20211016233942 21 127 4.8 9.7 0.00 0.00 0.00 59 1017.4
20211016233441 21 79 1.6 1.6 0.00 0.00 0.00 62 1017.6
20211016232938 21 149 1.6 1.6 0.00 0.00 0.00 61 1017.6
20211016232437 21 105 4.8 8.0 0.00 0.00 0.00 59 1017.2
20211016231930 21 8 3.2 3.2 0.00 0.00 0.00 62 1017.2
20211016231413 21 105 3.2 8.0 0.00 0.00 0.00 57 1017.3
20211016230913 21 129 3.2 3.2 0.00 0.00 0.00 58 1017.1
20211016230410 21 156 4.8 8.0 0.00 0.00 0.00 59 1017.0
20211016225907 21 347 3.2 8.0 0.00 0.00 0.00 58 1017.1
20211016225405 21 214 3.2 3.2 0.00 0.00 0.00 60 1016.9
20211016224903 21 66 0.0 1.6 0.00 0.00 0.00 58 1016.7
20211016224358 21 149 1.6 3.2 0.00 0.00 0.00 60 1016.6
20211016223856 21 125 1.6 4.8 0.00 0.00 0.00 58 1016.8
20211016223355 22 100 3.2 3.2 0.00 0.00 0.00 57 1016.5
20211016222855 22 2 1.6 3.2 0.00 0.00 0.00 57 1016.7
20211016222352 22 92 3.2 4.8 0.00 0.00 0.00 55 1016.4
20211016221850 22 86 1.6 1.6 0.00 0.00 0.00 54 1016.4
20211016221350 22 273 4.8 8.0 0.00 0.00 0.00 55 1016.3
20211016220849 22 101 1.6 3.2 0.00 0.00 0.00 55 1016.2
20211016220347 22 169 3.2 4.8 0.00 0.00 0.00 54 1016.2
20211016215847 22 113 0.0 1.6 0.00 0.00 0.00 56 1016.0
20211016215345 22 136 1.6 1.6 0.00 0.00 0.00 55 1016.2
20211016214843 22 171 4.8 8.0 0.00 0.00 0.00 53 1016.0
20211016214342 22 51 4.8 8.0 0.00 0.00 0.00 56 1016.0
20211016213843 22 168 1.6 1.6 0.00 0.00 0.00 55 1016.1
20211016213341 22 210 3.2 3.2 0.00 0.00 0.00 53 1016.0
20211016212839 22 204 3.2 3.2 0.00 0.00 0.00 53 1015.9
20211016212339 23 278 4.8 8.0 0.00 0.00 0.00 50 1015.8
20211016211837 23 172 3.2 4.8 0.00 0.00 0.00 53 1016.1
20211016211337 23 55 6.4 11.3 0.00 0.00 0.00 55 1016.0
20211016210835 23 121 1.6 1.6 0.00 0.00 0.00 55 1015.7
20211016210333 23 178 6.4 9.7 0.00 0.00 0.00 53 1015.7
20211016205832 23 82 3.2 3.2 0.00 0.00 0.00 53 1015.6
20211016205331 23 85 8.0 9.7 0.00 0.00 0.00 54 1016.0
20211016204829 23 111 1.6 3.2 0.00 0.00 0.00 57 1016.0
20211016204328 23 175 1.6 1.6 0.00 0.00 0.00 60 1015.9
20211016203827 23 161 0.0 1.6 0.00 0.00 0.00 59 1015.9
20211016203327 23 118 1.6 1.6 0.00 0.00 0.00 55 1015.7
20211016202826 23 124 3.2 3.2 0.00 0.00 0.00 60 1015.9
20211016202325 23 44 6.4 8.0 0.00 0.00 0.00 58 1015.9
20211016201824 23 45 1.6 1.6 0.00 0.00 0.00 60 1016.1
20211016201324 23 59 4.8 4.8 0.00 0.00 0.00 58 1016.1
20211016200820 23 119 4.8 8.0 0.00 0.00 0.00 60 1015.9
20211016200320 23 202 1.6 3.2 0.00 0.00 0.00 59 1015.9
20211016195814 23 69 3.2 3.2 0.00 0.00 0.00 62 1015.8
20211016195312 23 29 3.2 4.8 0.00 0.00 0.00 63 1015.9
20211016194808 23 91 0.0 1.6 0.00 0.00 0.00 62 1015.7
20211016194307 23 46 4.8 8.0 0.00 0.00 0.00 61 1015.9
20211016193807 24 252 3.2 3.2 0.00 0.00 0.00 62 1015.7
20211016193305 24 153 1.6 1.6 0.00 0.00 0.00 62 1015.7
20211016192805 23 153 3.2 4.8 0.00 0.00 0.00 62 1015.7
20211016192305 23 355 4.8 8.0 0.00 0.00 0.00 61 1015.5
20211016191801 23 173 1.6 1.6 0.00 0.00 0.00 62 1015.7
20211016191256 23 149 1.6 3.2 0.00 0.00 0.00 62 1015.8
20211016190755 23 22 3.2 4.8 0.00 0.00 0.00 64 1015.7
20211016190254 23 181 3.2 4.8 0.00 0.00 0.00 65 1015.6
20211016185752 23 160 1.6 1.6 0.00 0.00 0.00 64 1015.7
20211016185249 23 321 3.2 3.2 0.00 0.00 0.00 66 1015.9
20211016184744 23 209 3.2 3.2 0.00 0.00 0.00 66 1015.8
20211016184243 24 141 3.2 3.2 0.00 0.00 0.00 67 1016.0
20211016183743 24 114 4.8 8.0 0.00 0.00 0.00 66 1015.8
20211016183241 24 109 0.0 0.0 0.00 0.00 0.00 66 1016.1
20211016182739 23 100 4.8 4.8 0.00 0.00 0.00 68 1016.0
20211016182238 23 202 1.6 1.6 0.00 0.00 0.00 68 1016.0
20211016181737 23 6 6.4 14.5 0.00 0.00 0.00 70 1016.2
20211016181231 23 261 4.8 11.3 0.00 0.00 0.00 68 1016.0
20211016180730 23 40 1.6 3.2 0.00 0.00 0.00 68 1016.0
20211016180230 23 66 3.2 3.2 0.00 0.00 0.00 71 1016.0
20211016175729 23 133 3.2 3.2 0.00 0.00 0.00 71 1016.3
20211016175228 23 96 4.8 4.8 0.00 0.00 0.00 71 1016.2
20211016174727 23 266 3.2 4.8 0.00 0.00 0.00 70 1016.1
20211016174226 23 105 4.8 8.0 0.00 0.00 0.00 71 1016.2
20211016173725 23 99 1.6 3.2 0.00 0.00 0.00 70 1016.4
20211016173225 23 40 6.4 9.7 0.00 0.00 0.00 72 1016.4
20211016172725 23 148 3.2 3.2 0.00 0.00 0.00 73 1016.3
20211016172224 23 42 8.0 11.3 0.00 0.00 0.00 73 1016.3
20211016171718 23 107 1.6 1.6 0.00 0.00 0.00 74 1016.6
20211016171216 23 104 1.6 3.2 0.00 0.00 0.00 72 1016.5
20211016170714 25 42 3.2 4.8 0.00 0.00 0.00 72 1016.3
20211016170210 25 202 4.8 4.8 0.00 0.00 0.00 72 1016.5
20211016165708 25 216 1.6 3.2 0.00 0.00 0.00 73 1016.7
20211016165208 25 179 1.6 1.6 0.00 0.00 0.00 72 1016.4
20211016164705 25 160 1.6 1.6 0.00 0.00 0.00 73 1016.7
20211016164204 25 345 3.2 4.8 0.00 0.00 0.00 73 1016.4
20211016163703 25 167 1.6 3.2 0.00 0.00 0.00 73 1016.7
20211016163201 25 150 3.2 3.2 0.00 0.00 0.00 73 1016.4
20211016162659 25 31 4.8 9.7 0.00 0.00 0.00 76 1016.6
20211016162157 25 67 0.0 1.6 0.00 0.00 0.00 77 1016.3
20211016161656 25 146 1.6 1.6 0.00 0.00 0.00 77 1016.6
20211016161154 25 92 6.4 14.5 0.00 0.00 0.00 78 1016.6
20211016160652 25 293 3.2 3.2 0.00 0.00 0.00 77 1016.7
20211016160152 25 106 3.2 3.2 0.00 0.00 0.00 79 1016.6
20211016155651 24 169 3.2 4.8 0.00 0.00 0.00 81 1016.8
20211016155151 23 203 1.6 3.2 0.00 0.00 0.00 83 1016.5
20211016154650 23 79 0.0 1.6 0.00 0.00 0.00 85 1016.7
20211016154149 23 194 3.2 3.2 0.00 0.00 0.00 87 1016.5